sensor_id;sensor_type;location;lat;lon;timestamp;P1;durP1;ratioP1;P2;durP2;ratioP2
19006;SDS011;9636;47.382;8.480;2022-10-20T00:00:52;24.77;;;12.73;;
19006;SDS011;9636;47.382;8.480;2022-10-20T00:03:19;21.97;;;14.97;;
19006;SDS011;9636;47.382;8.480;2022-10-20T00:05:46;21.47;;;14.10;;
19006;SDS011;9636;47.382;8.480;2022-10-20T00:08:13;22.57;;;13.70;;
19006;SDS011;9636;47.382;8.480;2022-10-20T00:10:40;23.60;;;14.33;;
19006;SDS011;9636;47.382;8.480;2022-10-20T00:13:07;22.03;;;14.53;;
19006;SDS011;9636;47.382;8.480;2022-10-20T00:15:35;24.10;;;14.57;;
19006;SDS011;9636;47.382;8.480;2022-10-20T00:18:02;21.80;;;14.37;;
19006;SDS011;9636;47.382;8.480;2022-10-20T00:20:29;22.87;;;14.53;;
19006;SDS011;9636;47.382;8.480;2022-10-20T00:22:56;23.10;;;14.10;;
19006;SDS011;9636;47.382;8.480;2022-10-20T00:25:23;23.53;;;13.93;;
19006;SDS011;9636;47.382;8.480;2022-10-20T00:27:49;22.33;;;14.07;;
19006;SDS011;9636;47.382;8.480;2022-10-20T00:30:16;23.63;;;14.47;;
19006;SDS011;9636;47.382;8.480;2022-10-20T00:32:45;22.07;;;13.87;;
19006;SDS011;9636;47.382;8.480;2022-10-20T00:35:12;27.40;;;13.80;;
19006;SDS011;9636;47.382;8.480;2022-10-20T00:37:39;21.67;;;13.53;;
19006;SDS011;9636;47.382;8.480;2022-10-20T00:40:06;28.30;;;14.13;;
19006;SDS011;9636;47.382;8.480;2022-10-20T00:42:33;21.63;;;13.00;;
19006;SDS011;9636;47.382;8.480;2022-10-20T00:45:00;22.93;;;15.10;;
19006;SDS011;9636;47.382;8.480;2022-10-20T00:47:38;20.83;;;14.20;;
19006;SDS011;9636;47.382;8.480;2022-10-20T00:50:11;24.73;;;14.83;;
19006;SDS011;9636;47.382;8.480;2022-10-20T00:52:40;24.00;;;15.10;;
19006;SDS011;9636;47.382;8.480;2022-10-20T00:55:09;30.27;;;15.80;;
19006;SDS011;9636;47.382;8.480;2022-10-20T00:57:39;23.10;;;14.87;;
19006;SDS011;9636;47.382;8.480;2022-10-20T01:00:10;29.53;;;16.67;;
19006;SDS011;9636;47.382;8.480;2022-10-20T01:02:37;28.27;;;16.97;;
19006;SDS011;9636;47.382;8.480;2022-10-20T01:05:04;32.07;;;15.47;;
19006;SDS011;9636;47.382;8.480;2022-10-20T01:07:33;25.80;;;16.43;;
19006;SDS011;9636;47.382;8.480;2022-10-20T01:10:00;22.67;;;14.43;;
19006;SDS011;9636;47.382;8.480;2022-10-20T01:12:29;25.17;;;15.53;;
19006;SDS011;9636;47.382;8.480;2022-10-20T01:15:06;24.47;;;15.60;;
19006;SDS011;9636;47.382;8.480;2022-10-20T01:17:42;28.03;;;16.27;;
19006;SDS011;9636;47.382;8.480;2022-10-20T01:20:24;27.60;;;16.37;;
19006;SDS011;9636;47.382;8.480;2022-10-20T01:26:06;27.47;;;15.73;;
19006;SDS011;9636;47.382;8.480;2022-10-20T01:28:56;29.77;;;17.00;;
19006;SDS011;9636;47.382;8.480;2022-10-20T01:31:27;26.67;;;16.73;;
19006;SDS011;9636;47.382;8.480;2022-10-20T01:34:01;27.93;;;15.30;;
19006;SDS011;9636;47.382;8.480;2022-10-20T01:36:36;27.90;;;16.43;;
19006;SDS011;9636;47.382;8.480;2022-10-20T01:39:06;24.77;;;15.87;;
19006;SDS011;9636;47.382;8.480;2022-10-20T01:41:39;28.30;;;16.57;;
19006;SDS011;9636;47.382;8.480;2022-10-20T01:44:10;29.10;;;17.43;;
19006;SDS011;9636;47.382;8.480;2022-10-20T01:46:39;23.27;;;16.30;;
19006;SDS011;9636;47.382;8.480;2022-10-20T01:49:08;31.60;;;16.90;;
19006;SDS011;9636;47.382;8.480;2022-10-20T01:51:36;29.80;;;18.00;;
19006;SDS011;9636;47.382;8.480;2022-10-20T01:54:04;30.20;;;18.70;;
19006;SDS011;9636;47.382;8.480;2022-10-20T01:56:34;32.37;;;18.13;;
19006;SDS011;9636;47.382;8.480;2022-10-20T02:02:00;28.13;;;17.80;;
19006;SDS011;9636;47.382;8.480;2022-10-20T02:04:47;31.00;;;17.07;;
19006;SDS011;9636;47.382;8.480;2022-10-20T02:07:26;29.53;;;17.63;;
19006;SDS011;9636;47.382;8.480;2022-10-20T02:09:54;33.50;;;19.13;;
19006;SDS011;9636;47.382;8.480;2022-10-20T02:12:28;26.70;;;17.40;;
19006;SDS011;9636;47.382;8.480;2022-10-20T02:15:02;30.47;;;17.30;;
19006;SDS011;9636;47.382;8.480;2022-10-20T02:17:31;27.40;;;16.60;;
19006;SDS011;9636;47.382;8.480;2022-10-20T02:20:00;21.40;;;15.17;;
19006;SDS011;9636;47.382;8.480;2022-10-20T02:22:31;28.20;;;15.60;;
19006;SDS011;9636;47.382;8.480;2022-10-20T02:24:59;32.30;;;15.97;;
19006;SDS011;9636;47.382;8.480;2022-10-20T02:27:26;26.43;;;15.47;;
19006;SDS011;9636;47.382;8.480;2022-10-20T02:29:58;28.70;;;16.70;;
19006;SDS011;9636;47.382;8.480;2022-10-20T02:32:29;30.60;;;15.77;;
19006;SDS011;9636;47.382;8.480;2022-10-20T02:34:57;29.23;;;16.20;;
19006;SDS011;9636;47.382;8.480;2022-10-20T02:37:25;23.90;;;15.17;;
19006;SDS011;9636;47.382;8.480;2022-10-20T02:39:52;29.30;;;15.90;;
19006;SDS011;9636;47.382;8.480;2022-10-20T02:42:18;23.30;;;15.60;;
19006;SDS011;9636;47.382;8.480;2022-10-20T02:44:45;31.40;;;15.53;;
19006;SDS011;9636;47.382;8.480;2022-10-20T02:47:12;33.67;;;19.00;;
19006;SDS011;9636;47.382;8.480;2022-10-20T02:49:40;31.20;;;18.30;;
19006;SDS011;9636;47.382;8.480;2022-10-20T02:52:07;29.20;;;18.33;;
19006;SDS011;9636;47.382;8.480;2022-10-20T02:54:34;29.87;;;18.23;;
19006;SDS011;9636;47.382;8.480;2022-10-20T02:57:01;33.13;;;19.23;;
19006;SDS011;9636;47.382;8.480;2022-10-20T02:59:27;33.50;;;19.20;;
19006;SDS011;9636;47.382;8.480;2022-10-20T03:01:54;30.60;;;18.57;;
19006;SDS011;9636;47.382;8.480;2022-10-20T03:04:23;34.20;;;19.00;;
19006;SDS011;9636;47.382;8.480;2022-10-20T03:06:52;36.97;;;20.20;;
19006;SDS011;9636;47.382;8.480;2022-10-20T03:09:19;32.23;;;18.87;;
19006;SDS011;9636;47.382;8.480;2022-10-20T03:11:46;35.20;;;20.57;;
19006;SDS011;9636;47.382;8.480;2022-10-20T03:14:15;31.97;;;20.40;;
19006;SDS011;9636;47.382;8.480;2022-10-20T03:16:42;29.80;;;18.77;;
19006;SDS011;9636;47.382;8.480;2022-10-20T03:19:11;31.50;;;18.67;;
19006;SDS011;9636;47.382;8.480;2022-10-20T03:21:38;28.03;;;17.63;;
19006;SDS011;9636;47.382;8.480;2022-10-20T03:24:06;28.90;;;17.80;;
19006;SDS011;9636;47.382;8.480;2022-10-20T03:26:33;33.60;;;17.33;;
19006;SDS011;9636;47.382;8.480;2022-10-20T03:29:00;28.83;;;17.97;;
19006;SDS011;9636;47.382;8.480;2022-10-20T03:31:31;31.83;;;17.93;;
19006;SDS011;9636;47.382;8.480;2022-10-20T03:34:00;31.20;;;18.13;;
19006;SDS011;9636;47.382;8.480;2022-10-20T03:36:27;29.03;;;19.00;;
19006;SDS011;9636;47.382;8.480;2022-10-20T03:38:56;30.70;;;18.90;;
19006;SDS011;9636;47.382;8.480;2022-10-20T03:41:24;32.10;;;18.53;;
19006;SDS011;9636;47.382;8.480;2022-10-20T03:43:51;27.63;;;18.77;;
19006;SDS011;9636;47.382;8.480;2022-10-20T03:46:18;38.57;;;20.17;;
19006;SDS011;9636;47.382;8.480;2022-10-20T03:48:45;31.43;;;18.57;;
19006;SDS011;9636;47.382;8.480;2022-10-20T03:51:12;29.43;;;17.97;;
19006;SDS011;9636;47.382;8.480;2022-10-20T03:53:39;34.90;;;17.63;;
19006;SDS011;9636;47.382;8.480;2022-10-20T03:56:06;28.73;;;17.53;;
19006;SDS011;9636;47.382;8.480;2022-10-20T03:58:36;31.33;;;18.40;;
19006;SDS011;9636;47.382;8.480;2022-10-20T04:01:03;34.73;;;22.03;;
19006;SDS011;9636;47.382;8.480;2022-10-20T04:03:33;39.63;;;23.87;;
19006;SDS011;9636;47.382;8.480;2022-10-20T04:06:00;38.77;;;23.67;;
19006;SDS011;9636;47.382;8.480;2022-10-20T04:08:27;32.57;;;19.53;;
19006;SDS011;9636;47.382;8.480;2022-10-20T04:10:54;33.07;;;17.27;;
19006;SDS011;9636;47.382;8.480;2022-10-20T04:13:21;30.27;;;16.80;;
19006;SDS011;9636;47.382;8.480;2022-10-20T04:15:49;34.93;;;17.93;;
19006;SDS011;9636;47.382;8.480;2022-10-20T04:18:16;32.57;;;17.97;;
19006;SDS011;9636;47.382;8.480;2022-10-20T04:20:45;25.30;;;17.13;;
19006;SDS011;9636;47.382;8.480;2022-10-20T04:23:13;31.73;;;17.53;;
19006;SDS011;9636;47.382;8.480;2022-10-20T04:25:39;32.20;;;17.50;;
19006;SDS011;9636;47.382;8.480;2022-10-20T04:28:09;39.60;;;23.00;;
19006;SDS011;9636;47.382;8.480;2022-10-20T04:30:40;37.50;;;22.80;;
19006;SDS011;9636;47.382;8.480;2022-10-20T04:33:09;36.63;;;22.13;;
19006;SDS011;9636;47.382;8.480;2022-10-20T04:35:36;38.13;;;22.63;;
19006;SDS011;9636;47.382;8.480;2022-10-20T04:38:04;33.20;;;22.40;;
19006;SDS011;9636;47.382;8.480;2022-10-20T04:40:31;38.10;;;23.50;;
19006;SDS011;9636;47.382;8.480;2022-10-20T04:42:58;37.27;;;22.67;;
19006;SDS011;9636;47.382;8.480;2022-10-20T04:45:26;40.23;;;22.67;;
19006;SDS011;9636;47.382;8.480;2022-10-20T04:47:53;37.87;;;21.67;;
19006;SDS011;9636;47.382;8.480;2022-10-20T04:50:21;40.50;;;22.97;;
19006;SDS011;9636;47.382;8.480;2022-10-20T04:52:48;38.40;;;22.67;;
19006;SDS011;9636;47.382;8.480;2022-10-20T04:55:15;35.20;;;22.90;;
19006;SDS011;9636;47.382;8.480;2022-10-20T04:57:42;40.53;;;22.43;;
19006;SDS011;9636;47.382;8.480;2022-10-20T05:00:10;41.83;;;23.07;;
19006;SDS011;9636;47.382;8.480;2022-10-20T05:02:38;38.80;;;22.33;;
19006;SDS011;9636;47.382;8.480;2022-10-20T05:05:05;38.70;;;22.43;;
19006;SDS011;9636;47.382;8.480;2022-10-20T05:07:36;40.83;;;22.70;;
19006;SDS011;9636;47.382;8.480;2022-10-20T05:10:06;42.77;;;21.67;;
19006;SDS011;9636;47.382;8.480;2022-10-20T05:12:33;38.23;;;22.20;;
19006;SDS011;9636;47.382;8.480;2022-10-20T05:15:00;37.13;;;22.10;;
19006;SDS011;9636;47.382;8.480;2022-10-20T05:17:27;39.33;;;22.83;;
19006;SDS011;9636;47.382;8.480;2022-10-20T05:19:55;38.60;;;22.70;;
19006;SDS011;9636;47.382;8.480;2022-10-20T05:22:22;45.63;;;23.50;;
19006;SDS011;9636;47.382;8.480;2022-10-20T05:24:50;38.40;;;23.17;;
19006;SDS011;9636;47.382;8.480;2022-10-20T05:27:17;42.00;;;22.57;;
19006;SDS011;9636;47.382;8.480;2022-10-20T05:29:44;40.53;;;22.97;;
19006;SDS011;9636;47.382;8.480;2022-10-20T05:32:11;38.67;;;22.37;;
19006;SDS011;9636;47.382;8.480;2022-10-20T05:34:38;41.03;;;22.40;;
19006;SDS011;9636;47.382;8.480;2022-10-20T05:37:04;37.93;;;22.17;;
19006;SDS011;9636;47.382;8.480;2022-10-20T05:39:31;39.70;;;22.87;;
19006;SDS011;9636;47.382;8.480;2022-10-20T05:42:01;43.77;;;23.00;;
19006;SDS011;9636;47.382;8.480;2022-10-20T05:44:28;37.13;;;22.13;;
19006;SDS011;9636;47.382;8.480;2022-10-20T05:46:55;36.00;;;21.27;;
19006;SDS011;9636;47.382;8.480;2022-10-20T05:49:22;36.73;;;22.17;;
19006;SDS011;9636;47.382;8.480;2022-10-20T05:51:49;36.80;;;21.40;;
19006;SDS011;9636;47.382;8.480;2022-10-20T05:54:16;39.73;;;23.03;;
19006;SDS011;9636;47.382;8.480;2022-10-20T05:56:43;38.83;;;22.70;;
19006;SDS011;9636;47.382;8.480;2022-10-20T05:59:11;40.83;;;23.67;;
19006;SDS011;9636;47.382;8.480;2022-10-20T06:01:38;39.80;;;23.07;;
19006;SDS011;9636;47.382;8.480;2022-10-20T06:04:12;46.03;;;23.83;;
19006;SDS011;9636;47.382;8.480;2022-10-20T06:06:40;41.93;;;23.77;;
19006;SDS011;9636;47.382;8.480;2022-10-20T06:09:08;42.90;;;23.33;;
19006;SDS011;9636;47.382;8.480;2022-10-20T06:11:35;39.37;;;23.00;;
19006;SDS011;9636;47.382;8.480;2022-10-20T06:14:03;38.73;;;23.87;;
19006;SDS011;9636;47.382;8.480;2022-10-20T06:16:31;42.83;;;22.37;;
19006;SDS011;9636;47.382;8.480;2022-10-20T06:18:58;41.10;;;22.50;;
19006;SDS011;9636;47.382;8.480;2022-10-20T06:21:26;40.33;;;23.30;;
19006;SDS011;9636;47.382;8.480;2022-10-20T06:23:57;37.50;;;23.50;;
19006;SDS011;9636;47.382;8.480;2022-10-20T06:26:28;45.17;;;24.30;;
19006;SDS011;9636;47.382;8.480;2022-10-20T06:28:56;41.07;;;24.63;;
19006;SDS011;9636;47.382;8.480;2022-10-20T06:31:25;38.13;;;23.53;;
19006;SDS011;9636;47.382;8.480;2022-10-20T06:33:54;37.30;;;22.77;;
19006;SDS011;9636;47.382;8.480;2022-10-20T06:36:22;43.10;;;22.80;;
19006;SDS011;9636;47.382;8.480;2022-10-20T06:38:56;38.50;;;22.10;;
19006;SDS011;9636;47.382;8.480;2022-10-20T06:41:42;44.87;;;22.70;;
19006;SDS011;9636;47.382;8.480;2022-10-20T06:44:18;41.00;;;22.57;;
19006;SDS011;9636;47.382;8.480;2022-10-20T06:46:46;36.87;;;22.27;;
19006;SDS011;9636;47.382;8.480;2022-10-20T06:49:17;37.07;;;22.03;;
19006;SDS011;9636;47.382;8.480;2022-10-20T06:51:45;38.40;;;22.00;;
19006;SDS011;9636;47.382;8.480;2022-10-20T06:54:12;33.37;;;21.67;;
19006;SDS011;9636;47.382;8.480;2022-10-20T06:56:39;34.70;;;21.00;;
19006;SDS011;9636;47.382;8.480;2022-10-20T06:59:08;38.03;;;21.97;;
19006;SDS011;9636;47.382;8.480;2022-10-20T07:01:36;37.10;;;21.93;;
19006;SDS011;9636;47.382;8.480;2022-10-20T07:04:09;35.30;;;21.20;;
19006;SDS011;9636;47.382;8.480;2022-10-20T07:06:41;38.03;;;22.67;;
19006;SDS011;9636;47.382;8.480;2022-10-20T07:09:12;34.63;;;22.37;;
19006;SDS011;9636;47.382;8.480;2022-10-20T07:11:43;35.30;;;22.70;;
19006;SDS011;9636;47.382;8.480;2022-10-20T07:14:18;41.53;;;22.87;;
19006;SDS011;9636;47.382;8.480;2022-10-20T07:16:45;47.27;;;23.93;;
19006;SDS011;9636;47.382;8.480;2022-10-20T07:19:12;38.37;;;23.87;;
19006;SDS011;9636;47.382;8.480;2022-10-20T07:21:43;35.07;;;23.23;;
19006;SDS011;9636;47.382;8.480;2022-10-20T07:24:29;39.93;;;23.97;;
19006;SDS011;9636;47.382;8.480;2022-10-20T07:27:02;38.77;;;23.57;;
19006;SDS011;9636;47.382;8.480;2022-10-20T07:29:34;42.03;;;24.07;;
19006;SDS011;9636;47.382;8.480;2022-10-20T07:32:02;38.77;;;23.77;;
19006;SDS011;9636;47.382;8.480;2022-10-20T07:34:50;35.80;;;22.90;;
19006;SDS011;9636;47.382;8.480;2022-10-20T07:37:24;36.63;;;22.83;;
19006;SDS011;9636;47.382;8.480;2022-10-20T07:40:11;35.97;;;21.50;;
19006;SDS011;9636;47.382;8.480;2022-10-20T07:42:40;38.17;;;23.83;;
19006;SDS011;9636;47.382;8.480;2022-10-20T07:45:07;41.93;;;24.73;;
19006;SDS011;9636;47.382;8.480;2022-10-20T07:47:35;38.43;;;24.27;;
19006;SDS011;9636;47.382;8.480;2022-10-20T07:50:02;46.73;;;25.43;;
19006;SDS011;9636;47.382;8.480;2022-10-20T07:52:30;36.70;;;23.87;;
19006;SDS011;9636;47.382;8.480;2022-10-20T07:54:57;43.27;;;25.13;;
19006;SDS011;9636;47.382;8.480;2022-10-20T07:57:24;42.50;;;25.30;;
19006;SDS011;9636;47.382;8.480;2022-10-20T07:59:51;36.87;;;24.07;;
19006;SDS011;9636;47.382;8.480;2022-10-20T08:02:18;41.27;;;23.73;;
19006;SDS011;9636;47.382;8.480;2022-10-20T08:04:45;38.50;;;24.17;;
19006;SDS011;9636;47.382;8.480;2022-10-20T08:07:12;35.40;;;22.97;;
19006;SDS011;9636;47.382;8.480;2022-10-20T08:09:40;40.20;;;23.63;;
19006;SDS011;9636;47.382;8.480;2022-10-20T08:12:08;38.73;;;22.37;;
19006;SDS011;9636;47.382;8.480;2022-10-20T08:14:35;39.47;;;22.20;;
19006;SDS011;9636;47.382;8.480;2022-10-20T08:17:03;38.63;;;21.87;;
19006;SDS011;9636;47.382;8.480;2022-10-20T08:19:32;40.10;;;23.07;;
19006;SDS011;9636;47.382;8.480;2022-10-20T08:22:02;36.67;;;22.33;;
19006;SDS011;9636;47.382;8.480;2022-10-20T08:24:32;39.53;;;22.47;;
19006;SDS011;9636;47.382;8.480;2022-10-20T08:27:03;35.33;;;22.23;;
19006;SDS011;9636;47.382;8.480;2022-10-20T08:29:30;38.30;;;21.30;;
19006;SDS011;9636;47.382;8.480;2022-10-20T08:32:06;37.87;;;21.90;;
19006;SDS011;9636;47.382;8.480;2022-10-20T08:34:36;40.20;;;21.90;;
19006;SDS011;9636;47.382;8.480;2022-10-20T08:37:03;38.00;;;21.90;;
19006;SDS011;9636;47.382;8.480;2022-10-20T08:39:30;41.27;;;23.20;;
19006;SDS011;9636;47.382;8.480;2022-10-20T08:41:57;36.10;;;21.17;;
19006;SDS011;9636;47.382;8.480;2022-10-20T08:44:29;40.67;;;23.50;;
19006;SDS011;9636;47.382;8.480;2022-10-20T08:47:03;41.53;;;23.30;;
19006;SDS011;9636;47.382;8.480;2022-10-20T08:49:41;38.30;;;23.30;;
19006;SDS011;9636;47.382;8.480;2022-10-20T08:52:12;38.60;;;22.43;;
19006;SDS011;9636;47.382;8.480;2022-10-20T08:54:40;41.33;;;23.77;;
19006;SDS011;9636;47.382;8.480;2022-10-20T08:57:10;39.10;;;22.97;;
19006;SDS011;9636;47.382;8.480;2022-10-20T10:33:17;30.90;;;19.67;;
19006;SDS011;9636;47.382;8.480;2022-10-20T10:35:50;32.00;;;19.10;;
19006;SDS011;9636;47.382;8.480;2022-10-20T10:38:18;31.13;;;18.67;;
19006;SDS011;9636;47.382;8.480;2022-10-20T10:40:47;31.27;;;19.07;;
19006;SDS011;9636;47.382;8.480;2022-10-20T10:43:24;32.17;;;20.00;;
19006;SDS011;9636;47.382;8.480;2022-10-20T10:45:56;28.23;;;18.33;;
19006;SDS011;9636;47.382;8.480;2022-10-20T10:51:31;31.73;;;18.97;;
19006;SDS011;9636;47.382;8.480;2022-10-20T10:54:11;29.80;;;18.07;;
19006;SDS011;9636;47.382;8.480;2022-10-20T10:56:49;30.20;;;18.07;;
19006;SDS011;9636;47.382;8.480;2022-10-20T10:59:20;28.93;;;17.73;;
19006;SDS011;9636;47.382;8.480;2022-10-20T11:08:01;32.40;;;17.97;;
19006;SDS011;9636;47.382;8.480;2022-10-20T11:10:36;27.97;;;17.90;;
19006;SDS011;9636;47.382;8.480;2022-10-20T11:13:18;28.73;;;17.83;;
19006;SDS011;9636;47.382;8.480;2022-10-20T11:16:01;31.03;;;18.93;;
19006;SDS011;9636;47.382;8.480;2022-10-20T11:18:43;29.30;;;18.43;;
19006;SDS011;9636;47.382;8.480;2022-10-20T11:21:30;30.57;;;18.60;;
19006;SDS011;9636;47.382;8.480;2022-10-20T11:24:05;31.40;;;19.00;;
19006;SDS011;9636;47.382;8.480;2022-10-20T11:26:56;33.93;;;17.23;;
19006;SDS011;9636;47.382;8.480;2022-10-20T11:29:30;31.50;;;17.13;;
19006;SDS011;9636;47.382;8.480;2022-10-20T11:32:04;31.83;;;18.43;;
19006;SDS011;9636;47.382;8.480;2022-10-20T11:34:37;28.93;;;17.13;;
19006;SDS011;9636;47.382;8.480;2022-10-20T11:37:14;29.47;;;18.87;;
19006;SDS011;9636;47.382;8.480;2022-10-20T11:39:47;29.40;;;18.63;;
19006;SDS011;9636;47.382;8.480;2022-10-20T11:42:23;29.83;;;18.67;;
19006;SDS011;9636;47.382;8.480;2022-10-20T11:44:55;31.23;;;18.70;;
19006;SDS011;9636;47.382;8.480;2022-10-20T11:47:25;33.03;;;19.03;;
19006;SDS011;9636;47.382;8.480;2022-10-20T11:49:57;38.00;;;18.87;;
19006;SDS011;9636;47.382;8.480;2022-10-20T11:52:39;30.33;;;19.00;;
19006;SDS011;9636;47.382;8.480;2022-10-20T11:55:32;32.07;;;19.20;;
19006;SDS011;9636;47.382;8.480;2022-10-20T11:58:26;29.40;;;18.90;;
19006;SDS011;9636;47.382;8.480;2022-10-20T12:01:07;35.40;;;19.30;;
19006;SDS011;9636;47.382;8.480;2022-10-20T12:04:01;36.90;;;18.67;;
19006;SDS011;9636;47.382;8.480;2022-10-20T12:06:51;30.67;;;19.27;;
19006;SDS011;9636;47.382;8.480;2022-10-20T12:09:52;31.23;;;18.83;;
19006;SDS011;9636;47.382;8.480;2022-10-20T12:12:27;33.90;;;19.77;;
19006;SDS011;9636;47.382;8.480;2022-10-20T12:14:59;38.80;;;20.43;;
19006;SDS011;9636;47.382;8.480;2022-10-20T12:17:28;34.23;;;20.43;;
19006;SDS011;9636;47.382;8.480;2022-10-20T12:23:03;38.03;;;20.47;;
19006;SDS011;9636;47.382;8.480;2022-10-20T12:25:36;33.37;;;20.57;;
19006;SDS011;9636;47.382;8.480;2022-10-20T12:31:09;31.13;;;20.10;;
19006;SDS011;9636;47.382;8.480;2022-10-20T12:33:37;35.87;;;19.70;;
19006;SDS011;9636;47.382;8.480;2022-10-20T12:39:12;33.57;;;20.03;;
19006;SDS011;9636;47.382;8.480;2022-10-20T12:41:52;32.40;;;19.80;;
19006;SDS011;9636;47.382;8.480;2022-10-20T12:44:22;36.20;;;20.43;;
19006;SDS011;9636;47.382;8.480;2022-10-20T12:46:53;31.93;;;18.67;;
19006;SDS011;9636;47.382;8.480;2022-10-20T12:49:22;30.57;;;18.73;;
19006;SDS011;9636;47.382;8.480;2022-10-20T12:51:54;31.10;;;19.30;;
19006;SDS011;9636;47.382;8.480;2022-10-20T12:54:23;29.77;;;17.93;;
19006;SDS011;9636;47.382;8.480;2022-10-20T12:56:57;27.83;;;18.43;;
19006;SDS011;9636;47.382;8.480;2022-10-20T12:59:33;28.07;;;18.00;;
19006;SDS011;9636;47.382;8.480;2022-10-20T13:07:59;27.23;;;17.23;;
19006;SDS011;9636;47.382;8.480;2022-10-20T13:10:30;29.23;;;17.27;;
19006;SDS011;9636;47.382;8.480;2022-10-20T13:16:20;26.97;;;17.07;;
19006;SDS011;9636;47.382;8.480;2022-10-20T13:18:49;27.87;;;16.77;;
19006;SDS011;9636;47.382;8.480;2022-10-20T13:21:25;27.03;;;15.60;;
19006;SDS011;9636;47.382;8.480;2022-10-20T13:24:00;33.30;;;17.17;;
19006;SDS011;9636;47.382;8.480;2022-10-20T13:26:30;31.20;;;16.90;;
19006;SDS011;9636;47.382;8.480;2022-10-20T13:29:01;27.15;;;15.82;;
19006;SDS011;9636;47.382;8.480;2022-10-20T13:31:40;28.70;;;16.73;;
19006;SDS011;9636;47.382;8.480;2022-10-20T13:34:14;26.05;;;15.75;;
19006;SDS011;9636;47.382;8.480;2022-10-20T13:36:49;28.03;;;16.47;;
19006;SDS011;9636;47.382;8.480;2022-10-20T13:39:28;28.40;;;16.20;;
19006;SDS011;9636;47.382;8.480;2022-10-20T13:42:04;30.97;;;16.67;;
19006;SDS011;9636;47.382;8.480;2022-10-20T13:44:53;32.00;;;15.73;;
19006;SDS011;9636;47.382;8.480;2022-10-20T13:47:37;34.53;;;15.23;;
19006;SDS011;9636;47.382;8.480;2022-10-20T13:50:11;27.97;;;15.47;;
19006;SDS011;9636;47.382;8.480;2022-10-20T13:52:41;26.30;;;15.80;;
19006;SDS011;9636;47.382;8.480;2022-10-20T13:55:14;26.27;;;15.80;;
19006;SDS011;9636;47.382;8.480;2022-10-20T13:57:46;28.23;;;15.93;;
19006;SDS011;9636;47.382;8.480;2022-10-20T14:00:17;27.03;;;15.30;;
19006;SDS011;9636;47.382;8.480;2022-10-20T14:02:55;21.97;;;14.13;;
19006;SDS011;9636;47.382;8.480;2022-10-20T14:05:24;20.80;;;12.77;;
19006;SDS011;9636;47.382;8.480;2022-10-20T14:07:52;25.00;;;12.87;;
19006;SDS011;9636;47.382;8.480;2022-10-20T14:10:21;24.27;;;12.97;;
19006;SDS011;9636;47.382;8.480;2022-10-20T14:12:50;23.00;;;13.43;;
19006;SDS011;9636;47.382;8.480;2022-10-20T14:15:19;21.03;;;12.10;;
19006;SDS011;9636;47.382;8.480;2022-10-20T14:17:56;21.43;;;14.40;;
19006;SDS011;9636;47.382;8.480;2022-10-20T14:20:25;27.23;;;14.43;;
19006;SDS011;9636;47.382;8.480;2022-10-20T14:22:53;29.50;;;14.70;;
19006;SDS011;9636;47.382;8.480;2022-10-20T14:25:21;24.53;;;13.83;;
19006;SDS011;9636;47.382;8.480;2022-10-20T14:27:49;22.77;;;15.07;;
19006;SDS011;9636;47.382;8.480;2022-10-20T14:30:20;25.90;;;15.97;;
19006;SDS011;9636;47.382;8.480;2022-10-20T14:32:51;28.37;;;16.53;;
19006;SDS011;9636;47.382;8.480;2022-10-20T14:35:24;25.60;;;15.87;;
19006;SDS011;9636;47.382;8.480;2022-10-20T14:37:56;29.07;;;15.77;;
19006;SDS011;9636;47.382;8.480;2022-10-20T14:40:25;26.65;;;15.77;;
19006;SDS011;9636;47.382;8.480;2022-10-20T14:42:58;28.77;;;15.83;;
19006;SDS011;9636;47.382;8.480;2022-10-20T14:45:27;28.63;;;15.63;;
19006;SDS011;9636;47.382;8.480;2022-10-20T14:47:55;27.57;;;15.67;;
19006;SDS011;9636;47.382;8.480;2022-10-20T14:50:30;25.03;;;15.00;;
19006;SDS011;9636;47.382;8.480;2022-10-20T14:53:15;28.87;;;15.83;;
19006;SDS011;9636;47.382;8.480;2022-10-20T14:55:43;29.73;;;17.40;;
19006;SDS011;9636;47.382;8.480;2022-10-20T14:58:26;28.23;;;15.73;;
19006;SDS011;9636;47.382;8.480;2022-10-20T15:01:15;30.13;;;15.60;;
19006;SDS011;9636;47.382;8.480;2022-10-20T15:03:55;30.33;;;16.10;;
19006;SDS011;9636;47.382;8.480;2022-10-20T15:06:30;31.07;;;15.17;;
19006;SDS011;9636;47.382;8.480;2022-10-20T15:08:57;29.13;;;16.17;;
19006;SDS011;9636;47.382;8.480;2022-10-20T15:11:25;23.17;;;13.00;;
19006;SDS011;9636;47.382;8.480;2022-10-20T15:13:55;26.10;;;12.87;;
19006;SDS011;9636;47.382;8.480;2022-10-20T15:16:31;21.97;;;12.27;;
19006;SDS011;9636;47.382;8.480;2022-10-20T15:19:26;27.17;;;12.87;;
19006;SDS011;9636;47.382;8.480;2022-10-20T15:22:00;25.30;;;12.60;;
19006;SDS011;9636;47.382;8.480;2022-10-20T15:24:34;21.90;;;12.80;;
19006;SDS011;9636;47.382;8.480;2022-10-20T15:27:01;21.20;;;12.00;;
19006;SDS011;9636;47.382;8.480;2022-10-20T15:29:29;20.00;;;12.27;;
19006;SDS011;9636;47.382;8.480;2022-10-20T15:31:57;24.70;;;12.10;;
19006;SDS011;9636;47.382;8.480;2022-10-20T15:34:25;20.87;;;11.67;;
19006;SDS011;9636;47.382;8.480;2022-10-20T15:36:52;23.13;;;11.60;;
19006;SDS011;9636;47.382;8.480;2022-10-20T15:39:20;21.77;;;11.43;;
19006;SDS011;9636;47.382;8.480;2022-10-20T15:41:47;23.93;;;10.63;;
19006;SDS011;9636;47.382;8.480;2022-10-20T15:44:15;30.83;;;9.87;;
19006;SDS011;9636;47.382;8.480;2022-10-20T15:46:56;19.60;;;10.13;;
19006;SDS011;9636;47.382;8.480;2022-10-20T15:58:35;20.77;;;10.07;;
19006;SDS011;9636;47.382;8.480;2022-10-20T16:06:14;20.70;;;10.20;;
19006;SDS011;9636;47.382;8.480;2022-10-20T16:08:43;18.90;;;10.20;;
19006;SDS011;9636;47.382;8.480;2022-10-20T16:11:11;27.70;;;11.30;;
19006;SDS011;9636;47.382;8.480;2022-10-20T16:13:40;19.50;;;9.67;;
19006;SDS011;9636;47.382;8.480;2022-10-20T16:16:09;28.57;;;9.93;;
19006;SDS011;9636;47.382;8.480;2022-10-20T16:18:38;20.23;;;9.93;;
19006;SDS011;9636;47.382;8.480;2022-10-20T16:21:05;26.67;;;10.60;;
19006;SDS011;9636;47.382;8.480;2022-10-20T16:23:33;22.60;;;9.57;;
19006;SDS011;9636;47.382;8.480;2022-10-20T16:26:03;28.20;;;10.87;;
19006;SDS011;9636;47.382;8.480;2022-10-20T16:28:31;38.20;;;10.27;;
19006;SDS011;9636;47.382;8.480;2022-10-20T16:31:03;27.03;;;10.37;;
19006;SDS011;9636;47.382;8.480;2022-10-20T16:33:32;31.47;;;10.57;;
19006;SDS011;9636;47.382;8.480;2022-10-20T16:36:00;22.87;;;10.77;;
19006;SDS011;9636;47.382;8.480;2022-10-20T16:38:28;30.33;;;11.67;;
19006;SDS011;9636;47.382;8.480;2022-10-20T16:40:57;22.13;;;10.80;;
19006;SDS011;9636;47.382;8.480;2022-10-20T16:43:28;26.60;;;11.87;;
19006;SDS011;9636;47.382;8.480;2022-10-20T16:45:56;26.40;;;11.23;;
19006;SDS011;9636;47.382;8.480;2022-10-20T16:48:27;23.07;;;12.67;;
19006;SDS011;9636;47.382;8.480;2022-10-20T16:50:56;25.97;;;11.17;;
19006;SDS011;9636;47.382;8.480;2022-10-20T16:53:23;27.70;;;11.03;;
19006;SDS011;9636;47.382;8.480;2022-10-20T16:55:53;24.40;;;11.57;;
19006;SDS011;9636;47.382;8.480;2022-10-20T16:58:21;30.23;;;11.67;;
19006;SDS011;9636;47.382;8.480;2022-10-20T17:00:56;17.10;;;10.80;;
19006;SDS011;9636;47.382;8.480;2022-10-20T17:03:26;24.37;;;10.13;;
19006;SDS011;9636;47.382;8.480;2022-10-20T17:05:55;30.87;;;12.00;;
19006;SDS011;9636;47.382;8.480;2022-10-20T17:08:23;22.33;;;10.93;;
19006;SDS011;9636;47.382;8.480;2022-10-20T17:10:55;23.70;;;11.20;;
19006;SDS011;9636;47.382;8.480;2022-10-20T17:13:23;30.47;;;12.57;;
19006;SDS011;9636;47.382;8.480;2022-10-20T17:15:50;30.33;;;13.13;;
19006;SDS011;9636;47.382;8.480;2022-10-20T17:18:18;27.67;;;14.07;;